Terminal Aerodrome Forecast
Issued by NWS

Home | Current Version | Previous Version | Text Only | Print | Product List | Glossary On
Versions: 1 2 3 4 5 6 7 8 9 10 11 12 13
192
FTPA31 PHFO 161130
TAFSTU
TAF
NSTU 161130Z 1612/1712 VRB06KT P6SM FEW015 SCT040 BKN100
     FM161800 25007KT P6SM VCSH SCT015 BKN040=

USA.gov is the U.S. government's official web portal to all federal, state and local government web resources and services.